Time;durP1;ratioP1;P1;durP2;ratioP2;P2;SDS_P1;SDS_P2;PMS_P1;PMS_P2;Temp;Humidity;BMP_temperature;BMP_pressure;BME280_temperature;BME280_humidity;BME280_pressure;Samples;Min_cycle;Max_cycle;Signal;HPM_P1;HPM_P2
2023/04/21 00:01:35;;;;;;;19.98;17.88;;;;;;;;;;5084691;28;20208;-69
2023/04/21 00:04:01;;;;;;;20.65;17.83;;;;;;;;;;5084472;28;20196;-69
2023/04/21 00:06:30;;;;;;;18.38;16.48;;;;;;;;;;5084399;28;20196;-69
2023/04/21 00:08:56;;;;;;;22.25;16.88;;;;;;;;;;5084017;28;20208;-69
2023/04/21 00:11:22;;;;;;;19.73;16.33;;;;;;;;;;5084719;28;20500;-69
2023/04/21 00:13:50;;;;;;;20.00;16.60;;;;;;;;;;5083892;28;20280;-69
2023/04/21 00:16:16;;;;;;;18.23;16.33;;;;;;;;;;5084137;28;20196;-68
2023/04/21 00:18:43;;;;;;;17.55;15.75;;;;;;;;;;5084158;28;20531;-68
2023/04/21 00:21:09;;;;;;;17.98;15.93;;;;;;;;;;5084111;28;20197;-68
2023/04/21 00:23:35;;;;;;;17.20;15.50;;;;;;;;;;5083932;28;20204;-68
2023/04/21 00:26:02;;;;;;;18.27;16.33;;;;;;;;;;5084018;28;20208;-68
2023/04/21 00:28:28;;;;;;;17.25;15.43;;;;;;;;;;5083966;28;20543;-68
2023/04/21 00:30:56;;;;;;;18.65;15.93;;;;;;;;;;5083930;28;20200;-68
2023/04/21 00:33:22;;;;;;;16.15;14.52;;;;;;;;;;5083836;28;20216;-68
2023/04/21 00:35:48;;;;;;;16.65;14.95;;;;;;;;;;5083705;28;20200;-69
2023/04/21 00:38:14;;;;;;;16.20;14.60;;;;;;;;;;5083522;28;20203;-68
2023/04/21 00:40:41;;;;;;;15.65;14.05;;;;;;;;;;5084036;28;20204;-68
2023/04/21 00:43:07;;;;;;;17.30;14.82;;;;;;;;;;5083699;28;20201;-68
2023/04/21 00:45:33;;;;;;;15.25;13.75;;;;;;;;;;5083800;28;20200;-68
2023/04/21 00:48:01;;;;;;;16.40;14.80;;;;;;;;;;5083214;28;20201;-68
2023/04/21 00:50:28;;;;;;;18.08;15.15;;;;;;;;;;5083589;28;20197;-68
2023/04/21 00:52:55;;;;;;;15.10;13.60;;;;;;;;;;5083278;28;20257;-68
2023/04/21 00:55:21;;;;;;;15.32;13.43;;;;;;;;;;5083337;28;20196;-68
2023/04/21 00:57:48;;;;;;;15.60;13.88;;;;;;;;;;5083214;28;20204;-68
2023/04/21 01:00:15;;;;;;;15.77;13.85;;;;;;;;;;5083589;28;20196;-68
2023/04/21 01:02:44;;;;;;;16.13;13.77;;;;;;;;;;5083341;28;20231;-68
2023/04/21 01:05:11;;;;;;;15.85;14.25;;;;;;;;;;5083239;28;20196;-68
2023/04/21 01:07:38;;;;;;;15.70;13.63;;;;;;;;;;5083177;28;20427;-68
2023/04/21 01:10:05;;;;;;;15.13;13.55;;;;;;;;;;5083076;28;20208;-68
2023/04/21 01:12:31;;;;;;;15.80;13.77;;;;;;;;;;5083040;28;20224;-68
2023/04/21 01:14:58;;;;;;;15.95;14.35;;;;;;;;;;5082935;28;20205;-68
2023/04/21 01:17:24;;;;;;;14.77;13.18;;;;;;;;;;5082812;28;20242;-68
2023/04/21 01:19:51;;;;;;;15.70;13.88;;;;;;;;;;5082852;28;20390;-68
2023/04/21 01:22:19;;;;;;;16.00;14.27;;;;;;;;;;5082916;28;20200;-68
2023/04/21 01:24:46;;;;;;;14.73;13.23;;;;;;;;;;5082958;28;20205;-68
2023/04/21 01:27:13;;;;;;;16.30;14.13;;;;;;;;;;5082465;28;20226;-68
2023/04/21 01:29:40;;;;;;;13.93;12.50;;;;;;;;;;5082872;28;20204;-68
2023/04/21 01:32:08;;;;;;;15.48;13.40;;;;;;;;;;5082909;28;20381;-68
2023/04/21 01:34:34;;;;;;;15.52;13.93;;;;;;;;;;5082772;28;20554;-68
2023/04/21 01:37:00;;;;;;;15.75;13.15;;;;;;;;;;5082328;28;20212;-68
2023/04/21 01:39:28;;;;;;;17.40;13.35;;;;;;;;;;5082740;28;20267;-69
2023/04/21 01:41:56;;;;;;;14.20;12.70;;;;;;;;;;5082454;28;20205;-68
2023/04/21 01:44:22;;;;;;;14.88;13.07;;;;;;;;;;5082436;28;20389;-68
2023/04/21 01:46:49;;;;;;;15.80;14.10;;;;;;;;;;5082400;28;20244;-68
2023/04/21 01:49:15;;;;;;;14.25;12.75;;;;;;;;;;5074340;28;20196;-69
2023/04/21 01:51:41;;;;;;;16.92;14.05;;;;;;;;;;5082497;28;20200;-68
2023/04/21 01:54:07;;;;;;;15.63;13.80;;;;;;;;;;5082202;28;20223;-68
2023/04/21 01:56:35;;;;;;;16.27;14.45;;;;;;;;;;5082163;28;20208;-68
2023/04/21 01:59:02;;;;;;;18.73;13.77;;;;;;;;;;5082138;28;20330;-68
2023/04/21 02:01:29;;;;;;;14.65;12.63;;;;;;;;;;5082185;28;20242;-68
2023/04/21 02:03:55;;;;;;;13.18;11.90;;;;;;;;;;5082039;28;20208;-68
2023/04/21 02:06:21;;;;;;;13.60;12.07;;;;;;;;;;5082010;28;20200;-68
2023/04/21 02:08:48;;;;;;;15.05;11.85;;;;;;;;;;5082079;28;20438;-68
2023/04/21 02:11:14;;;;;;;12.77;10.80;;;;;;;;;;5081995;28;20203;-68
2023/04/21 02:13:41;;;;;;;11.52;10.43;;;;;;;;;;5081804;28;20279;-68
2023/04/21 02:16:08;;;;;;;11.90;10.73;;;;;;;;;;5082121;28;20200;-68
2023/04/21 02:18:38;;;;;;;12.38;11.07;;;;;;;;;;5081918;28;20511;-68
2023/04/21 02:21:05;;;;;;;12.25;10.88;;;;;;;;;;5082035;28;20247;-68
2023/04/21 02:23:31;;;;;;;10.75;9.70;;;;;;;;;;5081369;28;20200;-68
2023/04/21 02:25:57;;;;;;;11.27;10.25;;;;;;;;;;5081725;28;20224;-68
2023/04/21 02:28:24;;;;;;;12.02;10.05;;;;;;;;;;5081679;28;20224;-68
2023/04/21 02:30:51;;;;;;;10.82;9.73;;;;;;;;;;5081948;28;20207;-68
2023/04/21 02:33:18;;;;;;;12.07;10.40;;;;;;;;;;5073676;28;20216;-68
2023/04/21 02:35:44;;;;;;;10.73;8.95;;;;;;;;;;5081936;28;20204;-68
2023/04/21 02:38:10;;;;;;;10.68;9.65;;;;;;;;;;5081554;28;20224;-68
2023/04/21 02:40:36;;;;;;;11.15;10.05;;;;;;;;;;5081750;28;20433;-68
2023/04/21 02:43:03;;;;;;;9.35;8.48;;;;;;;;;;5081985;28;20519;-68
2023/04/21 02:45:29;;;;;;;9.65;8.75;;;;;;;;;;5081966;28;20200;-68
2023/04/21 02:47:57;;;;;;;9.70;8.70;;;;;;;;;;5081546;28;20200;-68
2023/04/21 02:50:24;;;;;;;9.10;8.30;;;;;;;;;;5081789;28;20227;-68
2023/04/21 02:52:50;;;;;;;9.18;8.27;;;;;;;;;;5081889;28;20200;-68
2023/04/21 02:55:16;;;;;;;10.15;9.13;;;;;;;;;;5081464;28;20201;-68
2023/04/21 02:57:43;;;;;;;10.60;9.57;;;;;;;;;;5081694;28;20451;-68
2023/04/21 03:00:10;;;;;;;9.70;8.80;;;;;;;;;;5081796;28;20396;-68
2023/04/21 03:02:37;;;;;;;11.32;9.55;;;;;;;;;;5081821;28;20200;-68
2023/04/21 03:05:05;;;;;;;10.13;8.77;;;;;;;;;;5081587;28;20200;-68
2023/04/21 03:07:31;;;;;;;10.52;9.52;;;;;;;;;;5081698;28;20201;-68
2023/04/21 03:09:57;;;;;;;9.75;8.80;;;;;;;;;;5081296;28;20580;-68
2023/04/21 03:12:23;;;;;;;9.73;8.73;;;;;;;;;;5081694;28;20234;-68
2023/04/21 03:14:50;;;;;;;9.50;8.57;;;;;;;;;;5081406;28;20215;-68
2023/04/21 03:17:16;;;;;;;11.63;9.60;;;;;;;;;;5081439;28;20250;-69
2023/04/21 03:19:43;;;;;;;10.75;9.65;;;;;;;;;;5081619;28;20389;-68
2023/04/21 03:22:10;;;;;;;13.20;10.38;;;;;;;;;;5081312;28;20561;-68
2023/04/21 03:24:36;;;;;;;10.40;9.38;;;;;;;;;;5081601;28;20438;-68
2023/04/21 03:27:05;;;;;;;11.15;10.05;;;;;;;;;;5081095;28;20403;-68
2023/04/21 03:29:31;;;;;;;13.25;11.27;;;;;;;;;;5081452;28;20241;-68
2023/04/21 03:31:57;;;;;;;11.93;10.60;;;;;;;;;;5081182;28;20242;-68
2023/04/21 03:34:23;;;;;;;12.10;10.90;;;;;;;;;;5083179;28;20216;-68
2023/04/21 03:36:50;;;;;;;16.27;10.98;;;;;;;;;;5084656;28;20201;-68
2023/04/21 03:39:17;;;;;;;10.68;9.40;;;;;;;;;;5085022;28;20208;-68
2023/04/21 03:41:43;;;;;;;10.77;9.68;;;;;;;;;;5085286;28;20238;-68
2023/04/21 03:44:10;;;;;;;10.88;9.77;;;;;;;;;;5084823;28;20205;-68
2023/04/21 03:46:36;;;;;;;10.23;9.10;;;;;;;;;;5084816;28;20200;-68
2023/04/21 03:49:02;;;;;;;14.18;10.93;;;;;;;;;;5084631;28;20392;-68
2023/04/21 03:51:28;;;;;;;12.45;11.10;;;;;;;;;;5084771;28;20424;-68
2023/04/21 03:53:55;;;;;;;17.92;13.88;;;;;;;;;;5084859;28;20221;-68
2023/04/21 03:56:22;;;;;;;19.05;15.90;;;;;;;;;;5084670;28;20439;-68
2023/04/21 03:58:48;;;;;;;21.67;17.27;;;;;;;;;;5084454;28;20424;-68
2023/04/21 04:01:15;;;;;;;19.63;16.42;;;;;;;;;;5084621;28;20569;-68
2023/04/21 04:03:41;;;;;;;20.08;17.38;;;;;;;;;;5084557;28;20524;-68
2023/04/21 04:06:07;;;;;;;21.95;17.70;;;;;;;;;;5084431;28;20212;-68
2023/04/21 04:08:33;;;;;;;23.33;17.85;;;;;;;;;;5084209;28;20212;-68
2023/04/21 04:11:00;;;;;;;23.15;18.75;;;;;;;;;;5084448;28;20234;-68
2023/04/21 04:13:28;;;;;;;22.35;17.27;;;;;;;;;;5084393;28;20204;-68
2023/04/21 04:15:54;;;;;;;18.90;16.38;;;;;;;;;;5084318;28;20204;-69
2023/04/21 04:18:20;;;;;;;22.40;16.52;;;;;;;;;;5084243;28;20636;-69
2023/04/21 04:20:47;;;;;;;21.75;17.25;;;;;;;;;;5084342;28;20443;-69
2023/04/21 04:23:13;;;;;;;51.15;18.77;;;;;;;;;;5084262;28;20203;-70
2023/04/21 04:25:39;;;;;;;26.33;18.13;;;;;;;;;;5084408;28;20249;-70
2023/04/21 04:28:06;;;;;;;27.73;18.75;;;;;;;;;;5083954;28;20273;-70
2023/04/21 04:30:34;;;;;;;24.75;19.27;;;;;;;;;;5083984;28;20231;-70
2023/04/21 04:33:00;;;;;;;25.55;18.52;;;;;;;;;;5083953;28;20223;-70
2023/04/21 04:35:26;;;;;;;27.70;19.17;;;;;;;;;;5084026;28;20224;-69
2023/04/21 04:37:53;;;;;;;25.63;20.10;;;;;;;;;;5083885;28;20558;-69
2023/04/21 04:40:21;;;;;;;26.90;19.75;;;;;;;;;;5083853;28;20208;-69
2023/04/21 04:42:47;;;;;;;27.17;19.48;;;;;;;;;;5083859;28;20537;-68
2023/04/21 04:45:15;;;;;;;26.92;18.58;;;;;;;;;;5083196;28;20204;-68
2023/04/21 04:47:44;;;;;;;28.63;19.27;;;;;;;;;;5083390;28;20223;-68
2023/04/21 04:50:10;;;;;;;64.53;20.77;;;;;;;;;;5083325;28;20508;-68
2023/04/21 04:52:37;;;;;;;25.80;18.55;;;;;;;;;;5083630;28;20562;-68
2023/04/21 04:55:03;;;;;;;27.48;19.73;;;;;;;;;;5083250;28;20419;-69
2023/04/21 04:57:30;;;;;;;26.23;18.63;;;;;;;;;;5083143;28;20203;-69
2023/04/21 04:59:56;;;;;;;27.50;20.25;;;;;;;;;;5083255;28;20538;-69
2023/04/21 05:02:23;;;;;;;22.48;17.98;;;;;;;;;;5082970;28;20197;-69
2023/04/21 05:04:51;;;;;;;24.60;18.70;;;;;;;;;;5083292;28;20420;-69
2023/04/21 05:07:17;;;;;;;26.50;19.23;;;;;;;;;;5082934;28;20200;-69
2023/04/21 05:09:43;;;;;;;25.55;19.83;;;;;;;;;;5083206;28;20207;-69
2023/04/21 05:12:10;;;;;;;29.42;21.02;;;;;;;;;;5083074;28;20200;-69
2023/04/21 05:14:36;;;;;;;28.08;20.15;;;;;;;;;;5082715;28;20216;-70
2023/04/21 05:17:02;;;;;;;30.60;21.13;;;;;;;;;;5082554;28;20274;-69
2023/04/21 05:19:28;;;;;;;26.45;21.08;;;;;;;;;;5082998;28;20196;-69
2023/04/21 05:22:00;;;;;;;24.25;18.40;;;;;;;;;;5082979;28;20200;-69
2023/04/21 05:24:27;;;;;;;19.45;15.73;;;;;;;;;;5082702;28;20193;-69
2023/04/21 05:26:53;;;;;;;19.25;16.90;;;;;;;;;;5082347;28;20204;-69
2023/04/21 05:29:20;;;;;;;19.27;16.25;;;;;;;;;;5082489;28;20201;-69
2023/04/21 05:31:46;;;;;;;21.70;16.85;;;;;;;;;;5082919;28;20204;-69
2023/04/21 05:34:12;;;;;;;23.08;17.92;;;;;;;;;;5082569;28;20554;-69
2023/04/21 05:36:41;;;;;;;25.80;18.33;;;;;;;;;;5082388;28;20517;-69
2023/04/21 05:39:08;;;;;;;24.48;18.92;;;;;;;;;;5082362;28;20246;-70
2023/04/21 05:41:34;;;;;;;25.98;20.85;;;;;;;;;;5082519;28;20204;-70
2023/04/21 05:44:01;;;;;;;26.27;20.92;;;;;;;;;;5082342;28;20199;-70
2023/04/21 05:46:29;;;;;;;26.98;19.63;;;;;;;;;;5082301;28;20234;-69
2023/04/21 05:48:55;;;;;;;26.27;19.98;;;;;;;;;;5082127;28;20224;-69
2023/04/21 05:51:21;;;;;;;23.70;19.73;;;;;;;;;;5082165;28;20245;-69
2023/04/21 05:53:47;;;;;;;22.38;18.42;;;;;;;;;;5082203;28;20201;-69
2023/04/21 05:56:15;;;;;;;20.45;18.23;;;;;;;;;;5082210;28;20246;-69
2023/04/21 05:58:41;;;;;;;23.17;19.00;;;;;;;;;;5081085;28;20499;-69
2023/04/21 06:01:08;;;;;;;23.90;18.70;;;;;;;;;;5082250;28;20250;-69
2023/04/21 06:03:34;;;;;;;21.75;17.77;;;;;;;;;;5082309;28;20200;-70
2023/04/21 06:06:00;;;;;;;21.63;18.67;;;;;;;;;;5082232;28;20205;-70
2023/04/21 06:08:27;;;;;;;22.15;18.73;;;;;;;;;;5082057;28;20234;-70
2023/04/21 06:10:53;;;;;;;24.90;19.67;;;;;;;;;;5082148;28;20382;-70
2023/04/21 06:13:21;;;;;;;24.67;18.45;;;;;;;;;;5081948;28;20212;-70
2023/04/21 06:15:47;;;;;;;25.35;18.63;;;;;;;;;;5082549;28;20220;-70
2023/04/21 06:18:13;;;;;;;23.42;18.42;;;;;;;;;;5082247;28;20344;-70
2023/04/21 06:20:40;;;;;;;21.35;18.10;;;;;;;;;;5082107;28;20192;-70
2023/04/21 06:23:08;;;;;;;24.25;18.75;;;;;;;;;;5082232;28;20212;-70
2023/04/21 06:25:34;;;;;;;26.10;20.45;;;;;;;;;;5081974;28;20193;-70
2023/04/21 06:28:00;;;;;;;23.23;18.90;;;;;;;;;;5082008;28;20360;-70
2023/04/21 06:30:28;;;;;;;24.02;18.77;;;;;;;;;;5082257;28;20204;-70
2023/04/21 06:32:54;;;;;;;25.35;20.15;;;;;;;;;;5081974;28;20249;-69
2023/04/21 06:35:20;;;;;;;22.95;19.92;;;;;;;;;;5081935;28;20228;-69
2023/04/21 06:37:47;;;;;;;21.33;18.27;;;;;;;;;;5081654;28;20208;-70
2023/04/21 06:40:14;;;;;;;22.77;18.63;;;;;;;;;;5081623;28;20200;-69
2023/04/21 06:42:41;;;;;;;23.10;19.55;;;;;;;;;;5082075;28;20204;-70
2023/04/21 06:45:07;;;;;;;22.40;18.30;;;;;;;;;;5082294;28;20196;-70
2023/04/21 06:47:35;;;;;;;25.77;20.92;;;;;;;;;;5082007;28;20201;-70
2023/04/21 06:50:01;;;;;;;25.23;20.52;;;;;;;;;;5081861;28;20427;-70
2023/04/21 06:52:27;;;;;;;25.17;20.23;;;;;;;;;;5082023;28;20264;-70
2023/04/21 06:54:54;;;;;;;25.85;20.25;;;;;;;;;;5081637;28;20224;-70
2023/04/21 06:57:20;;;;;;;26.10;21.33;;;;;;;;;;5081655;28;20204;-70
2023/04/21 06:59:46;;;;;;;26.23;20.83;;;;;;;;;;5081794;28;20441;-70
2023/04/21 07:02:13;;;;;;;25.27;20.58;;;;;;;;;;5082072;28;20499;-62
2023/04/21 07:04:40;;;;;;;26.63;21.08;;;;;;;;;;5082313;28;20200;-62
2023/04/21 07:07:06;;;;;;;24.25;19.75;;;;;;;;;;5082004;28;20205;-62
2023/04/21 07:09:33;;;;;;;27.52;20.55;;;;;;;;;;5084037;28;20258;-62
2023/04/21 07:11:59;;;;;;;24.25;19.77;;;;;;;;;;5086236;28;20216;-62
2023/04/21 07:14:26;;;;;;;23.85;19.15;;;;;;;;;;5085845;28;20212;-62
2023/04/21 07:16:53;;;;;;;22.17;18.13;;;;;;;;;;5085663;28;20246;-62
2023/04/21 07:19:20;;;;;;;23.92;18.88;;;;;;;;;;5085923;28;20204;-62
2023/04/21 07:21:47;;;;;;;23.23;19.52;;;;;;;;;;5085846;28;20208;-61
2023/04/21 07:24:13;;;;;;;25.50;19.80;;;;;;;;;;5086085;28;20253;-62
2023/04/21 07:26:40;;;;;;;23.65;18.55;;;;;;;;;;5085634;28;20210;-62
2023/04/21 07:29:06;;;;;;;24.63;19.35;;;;;;;;;;5085699;28;20212;-62
2023/04/21 07:31:32;;;;;;;29.20;20.67;;;;;;;;;;5085493;28;20197;-62
2023/04/21 07:33:58;;;;;;;29.65;20.45;;;;;;;;;;5085759;28;20196;-62
2023/04/21 07:36:27;;;;;;;28.67;20.60;;;;;;;;;;5084948;28;20217;-62
2023/04/21 07:38:54;;;;;;;29.80;21.95;;;;;;;;;;5085037;28;20200;-62
2023/04/21 07:41:20;;;;;;;25.13;20.85;;;;;;;;;;5080947;28;20234;-62
2023/04/21 07:43:46;;;;;;;24.48;20.63;;;;;;;;;;5084462;28;20196;-62
2023/04/21 07:46:13;;;;;;;31.42;25.27;;;;;;;;;;5084858;28;20215;-61
2023/04/21 07:48:39;;;;;;;33.47;26.52;;;;;;;;;;5085101;28;20234;-62
2023/04/21 07:51:06;;;;;;;24.70;21.20;;;;;;;;;;5085222;28;20197;-62
2023/04/21 07:53:32;;;;;;;25.98;20.60;;;;;;;;;;5085161;28;20201;-62
2023/04/21 07:55:59;;;;;;;24.77;21.02;;;;;;;;;;5084771;28;20221;-62
2023/04/21 07:58:26;;;;;;;23.40;19.42;;;;;;;;;;5084357;28;20226;-62
2023/04/21 08:00:52;;;;;;;23.65;19.20;;;;;;;;;;5084665;28;20188;-62
2023/04/21 08:03:18;;;;;;;27.35;20.70;;;;;;;;;;5083968;28;20197;-62
2023/04/21 08:05:44;;;;;;;24.65;19.83;;;;;;;;;;5084203;28;20259;-61
2023/04/21 08:08:11;;;;;;;23.75;19.33;;;;;;;;;;5084110;28;20511;-61
2023/04/21 08:10:37;;;;;;;22.13;18.58;;;;;;;;;;5083505;28;20208;-62
2023/04/21 08:13:05;;;;;;;22.05;17.65;;;;;;;;;;5081269;28;20211;-61
2023/04/21 08:15:31;;;;;;;18.67;16.17;;;;;;;;;;5083871;28;20412;-61
2023/04/21 08:17:57;;;;;;;19.83;16.67;;;;;;;;;;5083576;28;20200;-61
2023/04/21 08:20:24;;;;;;;23.48;18.92;;;;;;;;;;5082936;28;20196;-62
2023/04/21 08:22:51;;;;;;;22.45;18.75;;;;;;;;;;5083550;28;20231;-61
2023/04/21 08:25:17;;;;;;;19.40;16.08;;;;;;;;;;5084085;28;20226;-62
2023/04/21 08:27:43;;;;;;;16.67;14.88;;;;;;;;;;5083737;28;20262;-60
2023/04/21 08:30:11;;;;;;;20.63;16.58;;;;;;;;;;5076249;28;20236;-60
2023/04/21 08:32:38;;;;;;;17.50;15.23;;;;;;;;;;5077132;28;20274;-60
2023/04/21 08:35:04;;;;;;;19.10;16.38;;;;;;;;;;5079400;28;20583;-61
2023/04/21 08:37:30;;;;;;;20.48;16.63;;;;;;;;;;5079395;28;20214;-60
2023/04/21 08:39:57;;;;;;;20.85;15.48;;;;;;;;;;5079449;28;20215;-61
2023/04/21 08:42:23;;;;;;;19.50;15.88;;;;;;;;;;5079635;28;20215;-61
2023/04/21 08:44:49;;;;;;;18.45;16.35;;;;;;;;;;5079025;28;20260;-61
2023/04/21 08:47:19;;;;;;;17.90;15.75;;;;;;;;;;5077945;28;20215;-61
2023/04/21 08:49:45;;;;;;;17.88;14.70;;;;;;;;;;5078017;28;20283;-61
2023/04/21 08:52:11;;;;;;;15.98;14.38;;;;;;;;;;5078353;28;20254;-61
2023/04/21 08:54:38;;;;;;;16.80;14.73;;;;;;;;;;5077980;28;20525;-61
2023/04/21 08:57:04;;;;;;;16.27;13.95;;;;;;;;;;5077897;28;20251;-61
2023/04/21 08:59:31;;;;;;;15.77;13.40;;;;;;;;;;5078858;28;20212;-60
2023/04/21 09:02:07;;;;;;;17.55;14.43;;;;;;;;;;5078558;28;20208;-60
2023/04/21 09:04:35;;;;;;;17.00;13.40;;;;;;;;;;5078075;28;20516;-60
2023/04/21 09:07:01;;;;;;;15.65;14.05;;;;;;;;;;5077892;28;20585;-61
2023/04/21 09:09:27;;;;;;;12.90;11.38;;;;;;;;;;5078083;28;20381;-60
2023/04/21 09:11:54;;;;;;;13.68;11.02;;;;;;;;;;5077730;28;20204;-60
2023/04/21 09:14:20;;;;;;;11.15;10.15;;;;;;;;;;5077976;28;21448;-61
2023/04/21 09:16:58;;;;;;;12.35;10.85;;;;;;;;;;5082060;28;20266;-60
2023/04/21 09:19:26;;;;;;;11.52;10.30;;;;;;;;;;5083258;28;20234;-61
2023/04/21 09:21:53;;;;;;;10.63;9.52;;;;;;;;;;5083022;28;20322;-73
2023/04/21 09:24:20;;;;;;;10.77;9.35;;;;;;;;;;5082806;28;20279;-73
2023/04/21 09:26:49;;;;;;;7.25;6.65;;;;;;;;;;5081853;28;20235;-73
2023/04/21 09:29:16;;;;;;;8.70;7.80;;;;;;;;;;5081775;28;20222;-72
2023/04/21 09:31:43;;;;;;;14.32;11.35;;;;;;;;;;5073476;28;20197;-73
2023/04/21 09:34:17;;;;;;;10.15;8.65;;;;;;;;;;5081622;28;20242;-73
2023/04/21 09:36:45;;;;;;;7.22;6.15;;;;;;;;;;5073056;28;20250;-73
2023/04/21 09:39:12;;;;;;;7.65;7.05;;;;;;;;;;5081200;28;20196;-73
2023/04/21 09:41:38;;;;;;;7.70;6.90;;;;;;;;;;5081212;28;20242;-73
2023/04/21 09:44:05;;;;;;;6.32;5.82;;;;;;;;;;5082169;28;20253;-73
2023/04/21 09:46:32;;;;;;;7.88;6.72;;;;;;;;;;5082717;28;20235;-71
2023/04/21 09:49:00;;;;;;;37.70;21.20;;;;;;;;;;5082549;28;20395;-71
2023/04/21 09:51:27;;;;;;;24.15;15.98;;;;;;;;;;5082700;28;20508;-71
2023/04/21 09:53:56;;;;;;;29.98;17.95;;;;;;;;;;5082347;28;20200;-71
2023/04/21 09:56:25;;;;;;;9.60;8.32;;;;;;;;;;5082257;28;20236;-71
2023/04/21 09:58:52;;;;;;;17.05;12.20;;;;;;;;;;5081999;28;20200;-71
2023/04/21 10:01:19;;;;;;;9.73;8.65;;;;;;;;;;5082297;28;20196;-71
2023/04/21 10:03:47;;;;;;;8.95;8.05;;;;;;;;;;5082426;28;20481;-71
2023/04/21 10:06:13;;;;;;;14.60;10.30;;;;;;;;;;5082208;28;20222;-71
2023/04/21 10:08:40;;;;;;;18.42;15.02;;;;;;;;;;5081893;28;20242;-71
2023/04/21 10:11:07;;;;;;;10.43;9.43;;;;;;;;;;5082413;28;20234;-72
2023/04/21 10:13:35;;;;;;;12.80;8.40;;;;;;;;;;5082337;28;20273;-72
2023/04/21 10:16:02;;;;;;;9.77;8.88;;;;;;;;;;5082148;28;20212;-72
2023/04/21 10:18:28;;;;;;;9.13;8.27;;;;;;;;;;5082369;28;20196;-72
2023/04/21 10:20:55;;;;;;;8.90;7.95;;;;;;;;;;5082433;28;20504;-72
2023/04/21 10:23:28;;;;;;;9.77;7.15;;;;;;;;;;5081899;28;20205;-72
2023/04/21 10:26:00;;;;;;;9.27;7.35;;;;;;;;;;5082086;28;20206;-72
2023/04/21 10:28:40;;;;;;;8.05;7.30;;;;;;;;;;5081636;28;20258;-72
2023/04/21 10:31:19;;;;;;;8.52;7.63;;;;;;;;;;5082034;28;20275;-72
2023/04/21 10:34:00;;;;;;;11.68;7.53;;;;;;;;;;5073800;28;20203;-72
2023/04/21 10:36:26;;;;;;;7.75;6.90;;;;;;;;;;5081530;28;20228;-72
2023/04/21 10:38:55;;;;;;;7.55;6.93;;;;;;;;;;5082012;28;20200;-72
2023/04/21 10:41:28;;;;;;;9.40;8.60;;;;;;;;;;5078078;28;20526;-71
2023/04/21 10:43:57;;;;;;;9.35;7.47;;;;;;;;;;5081155;28;20208;-71
2023/04/21 10:46:33;;;;;;;8.95;7.57;;;;;;;;;;5085854;28;20204;-71
2023/04/21 10:49:04;;;;;;;8.20;7.47;;;;;;;;;;5085892;28;20215;-71
2023/04/21 10:51:31;;;;;;;10.70;8.07;;;;;;;;;;5085846;28;20526;-71
2023/04/21 10:53:58;;;;;;;10.25;8.13;;;;;;;;;;5086219;28;20242;-71
2023/04/21 10:56:24;;;;;;;9.13;8.30;;;;;;;;;;5085798;28;20224;-71
2023/04/21 10:58:52;;;;;;;9.18;7.60;;;;;;;;;;5086063;28;20425;-71
2023/04/21 11:01:19;;;;;;;8.25;7.45;;;;;;;;;;5086092;28;20212;-71
2023/04/21 11:03:45;;;;;;;7.40;6.72;;;;;;;;;;5085801;28;20208;-71
2023/04/21 11:06:16;;;;;;;7.25;6.65;;;;;;;;;;5086130;28;20238;-71
2023/04/21 11:08:54;;;;;;;7.22;6.63;;;;;;;;;;5085124;28;20271;-70
2023/04/21 11:11:21;;;;;;;7.30;6.70;;;;;;;;;;5077604;28;20209;-72
2023/04/21 11:13:48;;;;;;;7.38;6.78;;;;;;;;;;5077417;28;20212;-72
2023/04/21 11:16:14;;;;;;;7.35;6.63;;;;;;;;;;5085634;28;20224;-70
2023/04/21 11:18:42;;;;;;;6.45;5.88;;;;;;;;;;5085690;28;20392;-70
2023/04/21 11:21:09;;;;;;;6.28;5.78;;;;;;;;;;5085767;28;20209;-70
2023/04/21 11:23:35;;;;;;;6.40;5.80;;;;;;;;;;5085898;28;20212;-70
2023/04/21 11:26:02;;;;;;;6.55;5.95;;;;;;;;;;5085926;28;20235;-70
2023/04/21 11:28:28;;;;;;;6.22;5.72;;;;;;;;;;5085086;28;20565;-71
2023/04/21 11:30:54;;;;;;;5.63;5.15;;;;;;;;;;5085733;28;20219;-71
2023/04/21 11:33:20;;;;;;;5.22;4.72;;;;;;;;;;5085821;28;20231;-70
2023/04/21 11:35:50;;;;;;;4.97;4.60;;;;;;;;;;5085286;28;20249;-71
2023/04/21 11:38:17;;;;;;;5.30;4.80;;;;;;;;;;5085720;28;20204;-70
2023/04/21 11:40:44;;;;;;;5.97;5.40;;;;;;;;;;5085379;28;20593;-71
2023/04/21 11:43:11;;;;;;;4.82;4.53;;;;;;;;;;5084752;28;20212;-71
2023/04/21 11:45:37;;;;;;;4.57;4.18;;;;;;;;;;5081370;28;20216;-71
2023/04/21 11:48:13;;;;;;;4.97;4.68;;;;;;;;;;5082633;28;20212;-71
2023/04/21 11:50:39;;;;;;;5.70;5.10;;;;;;;;;;5075995;28;20508;-71
2023/04/21 11:53:07;;;;;;;4.45;4.15;;;;;;;;;;5085432;28;20216;-71
2023/04/21 11:55:35;;;;;;;4.60;4.20;;;;;;;;;;5083375;28;20212;-71
2023/04/21 11:58:02;;;;;;;4.03;3.70;;;;;;;;;;5081938;28;20535;-71
2023/04/21 12:00:29;;;;;;;4.78;4.47;;;;;;;;;;5082354;28;20439;-70
2023/04/21 12:02:56;;;;;;;5.93;5.28;;;;;;;;;;5078465;28;20243;-71
2023/04/21 12:05:22;;;;;;;5.22;4.82;;;;;;;;;;5082407;28;20251;-71
2023/04/21 12:07:50;;;;;;;4.75;4.45;;;;;;;;;;5081803;28;20267;-70
2023/04/21 12:10:19;;;;;;;4.85;4.45;;;;;;;;;;5081814;28;20208;-70
2023/04/21 12:12:45;;;;;;;7.45;3.67;;;;;;;;;;5071175;28;20443;-70
2023/04/21 12:15:12;;;;;;;4.28;4.07;;;;;;;;;;5073471;28;20524;-71
2023/04/21 12:17:38;;;;;;;3.90;3.70;;;;;;;;;;5081051;28;20228;-71
2023/04/21 12:20:06;;;;;;;3.70;3.47;;;;;;;;;;5076567;28;20200;-71
2023/04/21 12:22:32;;;;;;;4.85;3.75;;;;;;;;;;5080898;28;20250;-71
2023/04/21 12:24:58;;;;;;;4.47;4.18;;;;;;;;;;5068790;28;20426;-71
2023/04/21 12:27:26;;;;;;;5.03;4.43;;;;;;;;;;5078749;28;20244;-70
2023/04/21 12:29:52;;;;;;;4.82;4.32;;;;;;;;;;5073585;28;20215;-70
2023/04/21 12:32:19;;;;;;;3.80;3.53;;;;;;;;;;5081773;28;20496;-71
2023/04/21 12:34:45;;;;;;;3.72;3.53;;;;;;;;;;5081695;28;20462;-71
2023/04/21 12:37:11;;;;;;;4.00;3.78;;;;;;;;;;5081377;28;20535;-72
2023/04/21 12:39:37;;;;;;;3.00;2.90;;;;;;;;;;5079955;28;20585;-72
2023/04/21 12:42:05;;;;;;;3.47;3.22;;;;;;;;;;5074694;28;20503;-72
2023/04/21 12:44:32;;;;;;;2.83;2.72;;;;;;;;;;5081335;28;20208;-72
2023/04/21 12:47:00;;;;;;;2.85;2.67;;;;;;;;;;5081247;28;20208;-72
2023/04/21 12:49:26;;;;;;;3.50;3.05;;;;;;;;;;5081556;28;20207;-72
2023/04/21 12:51:52;;;;;;;3.10;2.97;;;;;;;;;;5083209;28;20204;-72
2023/04/21 12:54:18;;;;;;;3.13;2.92;;;;;;;;;;5084155;28;20193;-72
2023/04/21 12:56:45;;;;;;;2.60;2.40;;;;;;;;;;5083492;28;20220;-72
2023/04/21 12:59:12;;;;;;;2.15;2.15;;;;;;;;;;5083536;28;20196;-72
2023/04/21 13:01:38;;;;;;;2.38;2.28;;;;;;;;;;5083690;28;20212;-72
2023/04/21 13:04:06;;;;;;;1.90;1.80;;;;;;;;;;5084137;28;20242;-72
2023/04/21 13:06:33;;;;;;;1.80;1.75;;;;;;;;;;5083284;28;20204;-72
2023/04/21 13:09:00;;;;;;;1.60;1.55;;;;;;;;;;5077245;28;20203;-72
2023/04/21 13:11:26;;;;;;;1.70;1.70;;;;;;;;;;5080560;28;20219;-72
2023/04/21 13:13:53;;;;;;;1.63;1.63;;;;;;;;;;5083216;28;20519;-72
2023/04/21 13:16:19;;;;;;;2.05;1.63;;;;;;;;;;5083299;28;20200;-72
2023/04/21 13:18:45;;;;;;;1.35;1.35;;;;;;;;;;5082829;28;20196;-72
2023/04/21 13:21:13;;;;;;;1.70;1.67;;;;;;;;;;5079855;28;20211;-72
2023/04/21 13:23:40;;;;;;;1.45;1.45;;;;;;;;;;5080133;28;20208;-72
2023/04/21 13:26:06;;;;;;;2.25;1.40;;;;;;;;;;5078924;28;20195;-73
2023/04/21 13:28:32;;;;;;;1.23;1.23;;;;;;;;;;5082413;28;20224;-73
2023/04/21 13:30:59;;;;;;;1.80;1.70;;;;;;;;;;5082941;28;20196;-73
2023/04/21 13:33:25;;;;;;;1.33;1.33;;;;;;;;;;5081620;28;20555;-73
2023/04/21 13:35:52;;;;;;;1.40;1.40;;;;;;;;;;5078481;28;20200;-73
2023/04/21 13:38:20;;;;;;;1.40;1.40;;;;;;;;;;5078894;28;20284;-73
2023/04/21 13:40:47;;;;;;;2.78;1.15;;;;;;;;;;5081032;28;20200;-73
2023/04/21 13:43:14;;;;;;;1.77;1.25;;;;;;;;;;5079352;28;20271;-72
2023/04/21 13:45:40;;;;;;;1.60;1.50;;;;;;;;;;5080885;28;20385;-72
2023/04/21 13:48:06;;;;;;;1.60;1.50;;;;;;;;;;5078895;28;20192;-72
2023/04/21 13:50:32;;;;;;;1.85;1.80;;;;;;;;;;5082023;28;20200;-71
2023/04/21 13:52:59;;;;;;;1.80;1.80;;;;;;;;;;5082482;28;20250;-73
2023/04/21 13:55:26;;;;;;;1.40;1.40;;;;;;;;;;5082499;28;20196;-72
2023/04/21 13:57:52;;;;;;;1.45;1.45;;;;;;;;;;5081866;28;20576;-72
2023/04/21 14:00:19;;;;;;;1.45;1.45;;;;;;;;;;5082376;28;20204;-73
2023/04/21 14:02:45;;;;;;;3.05;1.63;;;;;;;;;;5082475;28;20247;-73
2023/04/21 14:05:11;;;;;;;1.50;1.50;;;;;;;;;;5082376;28;20273;-72
2023/04/21 14:07:38;;;;;;;3.28;1.75;;;;;;;;;;5082116;28;20267;-72
2023/04/21 14:10:04;;;;;;;3.10;1.63;;;;;;;;;;5082100;28;20437;-72
2023/04/21 14:12:32;;;;;;;1.70;1.70;;;;;;;;;;5082374;28;20227;-72
2023/04/21 14:14:58;;;;;;;2.22;2.22;;;;;;;;;;5082004;28;20200;-73
2023/04/21 14:17:24;;;;;;;1.92;1.80;;;;;;;;;;5081955;28;20216;-73
2023/04/21 14:19:51;;;;;;;2.28;2.17;;;;;;;;;;5081403;28;20199;-73
2023/04/21 14:22:18;;;;;;;2.05;1.95;;;;;;;;;;5082324;28;20196;-73
2023/04/21 14:24:44;;;;;;;1.92;1.80;;;;;;;;;;5081868;28;20199;-73